sensor_id;sensor_type;location;lat;lon;timestamp;pressure;altitude;pressure_sealevel;temperature;humidity
78932;BME280;68331;53.362;55.932;2023-07-02T00:02:14;98242.31;;;18.96;76.15
78932;BME280;68331;53.362;55.932;2023-07-02T00:04:41;98238.22;;;18.92;76.03
78932;BME280;68331;53.362;55.932;2023-07-02T00:07:07;98240.91;;;18.92;76.08
78932;BME280;68331;53.362;55.932;2023-07-02T00:09:33;98242.44;;;18.94;76.32
78932;BME280;68331;53.362;55.932;2023-07-02T00:11:59;98241.88;;;18.91;76.40
78932;BME280;68331;53.362;55.932;2023-07-02T00:14:25;98242.03;;;18.89;76.11
78932;BME280;68331;53.362;55.932;2023-07-02T00:16:50;98238.78;;;18.86;76.46
78932;BME280;68331;53.362;55.932;2023-07-02T00:19:16;98237.09;;;18.85;76.60
78932;BME280;68331;53.362;55.932;2023-07-02T00:21:43;98244.28;;;18.84;77.03
78932;BME280;68331;53.362;55.932;2023-07-02T00:24:09;98242.59;;;18.73;76.96
78932;BME280;68331;53.362;55.932;2023-07-02T00:26:36;98247.19;;;18.71;77.61
78932;BME280;68331;53.362;55.932;2023-07-02T00:29:04;98265.19;;;18.69;77.52
78932;BME280;68331;53.362;55.932;2023-07-02T00:31:32;98256.47;;;18.67;77.54
78932;BME280;68331;53.362;55.932;2023-07-02T00:33:59;98251.41;;;18.64;77.75
78932;BME280;68331;53.362;55.932;2023-07-02T00:36:30;98265.72;;;18.63;77.85
78932;BME280;68331;53.362;55.932;2023-07-02T00:38:56;98263.06;;;18.63;77.92
78932;BME280;68331;53.362;55.932;2023-07-02T00:41:23;98269.41;;;18.62;77.11
78932;BME280;68331;53.362;55.932;2023-07-02T00:43:49;98270.13;;;18.64;77.09
78932;BME280;68331;53.362;55.932;2023-07-02T00:46:17;98273.75;;;18.63;77.16
78932;BME280;68331;53.362;55.932;2023-07-02T00:48:46;98269.09;;;18.55;77.67
78932;BME280;68331;53.362;55.932;2023-07-02T00:51:15;98268.38;;;18.53;77.86
78932;BME280;68331;53.362;55.932;2023-07-02T00:53:44;98263.19;;;18.52;78.30
78932;BME280;68331;53.362;55.932;2023-07-02T00:56:12;98273.91;;;18.62;78.21
78932;BME280;68331;53.362;55.932;2023-07-02T00:58:40;98272.78;;;18.64;77.69
78932;BME280;68331;53.362;55.932;2023-07-02T01:01:12;98271.50;;;18.58;77.75
78932;BME280;68331;53.362;55.932;2023-07-02T01:03:38;98279.78;;;18.55;77.91
78932;BME280;68331;53.362;55.932;2023-07-02T01:06:04;98273.31;;;18.48;77.88
78932;BME280;68331;53.362;55.932;2023-07-02T01:08:30;98273.31;;;18.39;78.15
78932;BME280;68331;53.362;55.932;2023-07-02T01:10:57;98286.47;;;18.30;78.04
78932;BME280;68331;53.362;55.932;2023-07-02T01:13:25;98287.56;;;18.18;77.96
78932;BME280;68331;53.362;55.932;2023-07-02T01:15:51;98280.09;;;18.12;78.46
78932;BME280;68331;53.362;55.932;2023-07-02T01:18:18;98281.34;;;18.08;78.52
78932;BME280;68331;53.362;55.932;2023-07-02T01:20:44;98267.56;;;18.03;78.46
78932;BME280;68331;53.362;55.932;2023-07-02T01:23:11;98276.13;;;17.97;78.81
78932;BME280;68331;53.362;55.932;2023-07-02T01:25:37;98282.41;;;17.96;78.38
78932;BME280;68331;53.362;55.932;2023-07-02T01:28:04;98275.25;;;17.96;78.60
78932;BME280;68331;53.362;55.932;2023-07-02T01:30:30;98278.91;;;17.95;78.39
78932;BME280;68331;53.362;55.932;2023-07-02T01:32:56;98289.47;;;17.97;78.48
78932;BME280;68331;53.362;55.932;2023-07-02T01:35:22;98274.56;;;17.94;78.54
78932;BME280;68331;53.362;55.932;2023-07-02T01:37:48;98287.44;;;17.89;78.58
78932;BME280;68331;53.362;55.932;2023-07-02T01:40:14;98289.53;;;17.85;78.51
78932;BME280;68331;53.362;55.932;2023-07-02T01:42:40;98297.78;;;17.82;78.87
78932;BME280;68331;53.362;55.932;2023-07-02T01:45:07;98292.97;;;17.76;79.03
78932;BME280;68331;53.362;55.932;2023-07-02T01:47:33;98292.91;;;17.66;78.73
78932;BME280;68331;53.362;55.932;2023-07-02T01:49:59;98291.88;;;17.58;79.23
78932;BME280;68331;53.362;55.932;2023-07-02T01:52:26;98304.63;;;17.54;79.56
78932;BME280;68331;53.362;55.932;2023-07-02T01:54:53;98297.75;;;17.52;79.71
78932;BME280;68331;53.362;55.932;2023-07-02T01:57:19;98297.75;;;17.52;79.92
78932;BME280;68331;53.362;55.932;2023-07-02T01:59:45;98298.25;;;17.46;80.28
78932;BME280;68331;53.362;55.932;2023-07-02T02:02:11;98295.91;;;17.52;80.07
78932;BME280;68331;53.362;55.932;2023-07-02T02:04:38;98303.09;;;17.52;80.54
78932;BME280;68331;53.362;55.932;2023-07-02T02:07:04;98300.41;;;17.52;80.58
78932;BME280;68331;53.362;55.932;2023-07-02T02:09:31;98290.44;;;17.54;80.54
78932;BME280;68331;53.362;55.932;2023-07-02T02:11:58;98292.72;;;17.58;81.07
78932;BME280;68331;53.362;55.932;2023-07-02T02:14:25;98285.00;;;17.55;81.09
78932;BME280;68331;53.362;55.932;2023-07-02T02:16:52;98285.94;;;17.54;80.59
78932;BME280;68331;53.362;55.932;2023-07-02T02:19:18;98287.50;;;17.57;80.76
78932;BME280;68331;53.362;55.932;2023-07-02T02:21:44;98291.16;;;17.56;80.78
78932;BME280;68331;53.362;55.932;2023-07-02T02:24:11;98289.19;;;17.58;81.07
78932;BME280;68331;53.362;55.932;2023-07-02T02:26:37;98296.81;;;17.62;81.28
78932;BME280;68331;53.362;55.932;2023-07-02T02:29:04;98293.75;;;17.67;81.07
78932;BME280;68331;53.362;55.932;2023-07-02T02:31:30;98305.00;;;17.71;80.96
78932;BME280;68331;53.362;55.932;2023-07-02T02:33:57;98308.03;;;17.77;80.65
78932;BME280;68331;53.362;55.932;2023-07-02T02:36:23;98310.41;;;17.80;80.72
78932;BME280;68331;53.362;55.932;2023-07-02T02:38:49;98315.94;;;17.88;80.65
78932;BME280;68331;53.362;55.932;2023-07-02T02:41:16;98313.75;;;17.94;80.30
78932;BME280;68331;53.362;55.932;2023-07-02T02:43:47;98308.88;;;18.08;80.00
78932;BME280;68331;53.362;55.932;2023-07-02T02:46:23;98308.34;;;18.15;79.44
78932;BME280;68331;53.362;55.932;2023-07-02T02:48:50;98302.06;;;18.25;79.24
78932;BME280;68331;53.362;55.932;2023-07-02T02:51:17;98312.06;;;18.33;79.07
78932;BME280;68331;53.362;55.932;2023-07-02T02:53:43;98307.16;;;18.28;78.84
78932;BME280;68331;53.362;55.932;2023-07-02T02:56:09;98315.97;;;18.19;78.72
78932;BME280;68331;53.362;55.932;2023-07-02T02:58:35;98322.66;;;18.13;79.17
78932;BME280;68331;53.362;55.932;2023-07-02T03:01:01;98316.22;;;18.16;79.51
78932;BME280;68331;53.362;55.932;2023-07-02T03:03:28;98313.59;;;18.26;79.11
78932;BME280;68331;53.362;55.932;2023-07-02T03:05:53;98312.66;;;18.46;78.05
78932;BME280;68331;53.362;55.932;2023-07-02T03:08:19;98308.41;;;18.74;77.49
78932;BME280;68331;53.362;55.932;2023-07-02T03:10:46;98304.63;;;19.25;76.42
78932;BME280;68331;53.362;55.932;2023-07-02T03:13:12;98309.16;;;20.01;72.81
78932;BME280;68331;53.362;55.932;2023-07-02T03:15:38;98301.78;;;20.13;71.92
78932;BME280;68331;53.362;55.932;2023-07-02T03:18:04;98306.13;;;20.51;71.03
78932;BME280;68331;53.362;55.932;2023-07-02T03:20:30;98308.75;;;20.61;69.83
78932;BME280;68331;53.362;55.932;2023-07-02T03:22:56;98312.34;;;20.14;71.17
78932;BME280;68331;53.362;55.932;2023-07-02T03:25:22;98311.50;;;19.77;71.98
78932;BME280;68331;53.362;55.932;2023-07-02T03:27:48;98311.91;;;19.52;72.01
78932;BME280;68331;53.362;55.932;2023-07-02T03:30:14;98312.78;;;19.72;72.19
78932;BME280;68331;53.362;55.932;2023-07-02T03:32:40;98309.66;;;19.58;72.79
78932;BME280;68331;53.362;55.932;2023-07-02T03:35:06;98308.66;;;19.59;72.67
78932;BME280;68331;53.362;55.932;2023-07-02T03:37:32;98306.41;;;19.73;72.46
78932;BME280;68331;53.362;55.932;2023-07-02T03:39:58;98305.28;;;19.86;71.72
78932;BME280;68331;53.362;55.932;2023-07-02T03:42:25;98305.66;;;19.91;71.80
78932;BME280;68331;53.362;55.932;2023-07-02T03:44:51;98304.56;;;19.84;72.09
78932;BME280;68331;53.362;55.932;2023-07-02T03:47:17;98303.59;;;19.85;72.46
78932;BME280;68331;53.362;55.932;2023-07-02T03:49:46;98305.72;;;19.71;72.42
78932;BME280;68331;53.362;55.932;2023-07-02T03:52:12;98306.84;;;19.59;72.09
78932;BME280;68331;53.362;55.932;2023-07-02T03:54:38;98307.16;;;19.56;71.79
78932;BME280;68331;53.362;55.932;2023-07-02T03:57:05;98321.22;;;19.48;72.38
78932;BME280;68331;53.362;55.932;2023-07-02T03:59:31;98319.81;;;19.54;72.64
78932;BME280;68331;53.362;55.932;2023-07-02T04:01:57;98327.09;;;19.81;71.68
78932;BME280;68331;53.362;55.932;2023-07-02T04:04:23;98327.53;;;19.86;70.21
78932;BME280;68331;53.362;55.932;2023-07-02T04:06:49;98331.19;;;19.85;70.16
78932;BME280;68331;53.362;55.932;2023-07-02T04:09:14;98330.50;;;20.20;69.18
78932;BME280;68331;53.362;55.932;2023-07-02T04:11:41;98338.09;;;20.62;67.17
78932;BME280;68331;53.362;55.932;2023-07-02T04:14:07;98338.94;;;20.90;66.12
78932;BME280;68331;53.362;55.932;2023-07-02T04:16:33;98332.97;;;20.69;66.39
78932;BME280;68331;53.362;55.932;2023-07-02T04:18:59;98336.72;;;20.58;66.84
78932;BME280;68331;53.362;55.932;2023-07-02T04:21:26;98344.59;;;20.23;67.91
78932;BME280;68331;53.362;55.932;2023-07-02T04:23:52;98343.50;;;20.15;68.34
78932;BME280;68331;53.362;55.932;2023-07-02T04:26:19;98348.00;;;20.15;68.35
78932;BME280;68331;53.362;55.932;2023-07-02T04:28:45;98350.81;;;20.23;67.71
78932;BME280;68331;53.362;55.932;2023-07-02T04:31:11;98345.75;;;20.48;66.27
78932;BME280;68331;53.362;55.932;2023-07-02T04:33:37;98357.56;;;20.64;66.12
78932;BME280;68331;53.362;55.932;2023-07-02T04:36:04;98357.03;;;20.79;65.38
78932;BME280;68331;53.362;55.932;2023-07-02T04:38:31;98347.97;;;21.07;64.76
78932;BME280;68331;53.362;55.932;2023-07-02T04:40:58;98347.06;;;21.17;64.63
78932;BME280;68331;53.362;55.932;2023-07-02T04:43:27;98355.63;;;21.02;63.89
78932;BME280;68331;53.362;55.932;2023-07-02T04:45:57;98357.94;;;20.97;63.55
78932;BME280;68331;53.362;55.932;2023-07-02T04:48:23;98366.03;;;21.05;64.02
78932;BME280;68331;53.362;55.932;2023-07-02T04:50:49;98366.84;;;21.16;64.07
78932;BME280;68331;53.362;55.932;2023-07-02T04:53:15;98358.63;;;21.17;63.92
78932;BME280;68331;53.362;55.932;2023-07-02T04:55:42;98359.31;;;21.01;63.49
78932;BME280;68331;53.362;55.932;2023-07-02T04:58:08;98366.47;;;20.83;63.82
78932;BME280;68331;53.362;55.932;2023-07-02T05:00:35;98369.06;;;20.75;63.95
78932;BME280;68331;53.362;55.932;2023-07-02T05:03:01;98375.81;;;20.79;63.79
78932;BME280;68331;53.362;55.932;2023-07-02T05:05:27;98369.56;;;20.88;63.51
78932;BME280;68331;53.362;55.932;2023-07-02T05:07:54;98377.06;;;21.02;63.26
78932;BME280;68331;53.362;55.932;2023-07-02T05:10:20;98382.13;;;21.05;62.91
78932;BME280;68331;53.362;55.932;2023-07-02T05:12:46;98385.84;;;21.22;62.58
78932;BME280;68331;53.362;55.932;2023-07-02T05:15:12;98374.34;;;21.30;62.08
78932;BME280;68331;53.362;55.932;2023-07-02T05:17:39;98373.75;;;21.36;61.46
78932;BME280;68331;53.362;55.932;2023-07-02T05:20:05;98363.88;;;21.36;61.26
78932;BME280;68331;53.362;55.932;2023-07-02T05:22:32;98382.81;;;21.53;61.20
78932;BME280;68331;53.362;55.932;2023-07-02T05:24:58;98379.06;;;21.64;60.53
78932;BME280;68331;53.362;55.932;2023-07-02T05:27:24;98380.66;;;21.56;60.21
78932;BME280;68331;53.362;55.932;2023-07-02T05:29:50;98374.78;;;21.35;60.59
78932;BME280;68331;53.362;55.932;2023-07-02T05:32:16;98382.63;;;21.19;61.20
78932;BME280;68331;53.362;55.932;2023-07-02T05:34:42;98379.16;;;21.08;61.00
78932;BME280;68331;53.362;55.932;2023-07-02T05:37:08;98378.19;;;21.09;61.11
78932;BME280;68331;53.362;55.932;2023-07-02T05:39:34;98383.91;;;21.14;61.18
78932;BME280;68331;53.362;55.932;2023-07-02T05:42:00;98375.22;;;21.48;60.81
78932;BME280;68331;53.362;55.932;2023-07-02T05:44:27;98372.06;;;21.97;59.31
78932;BME280;68331;53.362;55.932;2023-07-02T05:46:52;98377.66;;;22.21;58.73
78932;BME280;68331;53.362;55.932;2023-07-02T05:49:18;98374.97;;;22.21;58.25
78932;BME280;68331;53.362;55.932;2023-07-02T05:51:44;98370.63;;;22.28;58.22
78932;BME280;68331;53.362;55.932;2023-07-02T05:54:10;98377.41;;;22.15;58.50
78932;BME280;68331;53.362;55.932;2023-07-02T05:56:36;98375.78;;;21.96;59.02
78932;BME280;68331;53.362;55.932;2023-07-02T05:59:02;98370.84;;;22.35;58.82
78932;BME280;68331;53.362;55.932;2023-07-02T06:01:28;98370.97;;;23.02;56.96
78932;BME280;68331;53.362;55.932;2023-07-02T06:03:54;98364.97;;;23.33;55.65
78932;BME280;68331;53.362;55.932;2023-07-02T06:06:23;98367.19;;;23.70;54.24
78932;BME280;68331;53.362;55.932;2023-07-02T06:08:52;98358.13;;;26.43;48.00
78932;BME280;68331;53.362;55.932;2023-07-02T06:11:18;98346.28;;;31.70;36.58
78932;BME280;68331;53.362;55.932;2023-07-02T06:13:44;98347.44;;;35.34;29.95
78932;BME280;68331;53.362;55.932;2023-07-02T06:16:10;98355.09;;;35.04;29.45
78932;BME280;68331;53.362;55.932;2023-07-02T06:18:36;98358.69;;;33.87;31.03
78932;BME280;68331;53.362;55.932;2023-07-02T06:21:02;98358.78;;;33.68;30.59
78932;BME280;68331;53.362;55.932;2023-07-02T06:23:30;98359.25;;;32.25;33.69
78932;BME280;68331;53.362;55.932;2023-07-02T06:26:04;98353.81;;;30.00;36.41
78932;BME280;68331;53.362;55.932;2023-07-02T06:28:30;98366.53;;;28.22;40.54
78932;BME280;68331;53.362;55.932;2023-07-02T06:30:56;98370.06;;;26.64;44.15
78932;BME280;68331;53.362;55.932;2023-07-02T06:33:22;98373.53;;;25.67;46.43
78932;BME280;68331;53.362;55.932;2023-07-02T06:35:49;98380.84;;;24.65;48.86
78932;BME280;68331;53.362;55.932;2023-07-02T06:38:15;98387.16;;;24.33;49.59
78932;BME280;68331;53.362;55.932;2023-07-02T06:40:41;98378.25;;;24.32;49.99
78932;BME280;68331;53.362;55.932;2023-07-02T06:43:07;98388.38;;;24.22;50.85
78932;BME280;68331;53.362;55.932;2023-07-02T06:45:35;98388.41;;;23.89;51.62
78932;BME280;68331;53.362;55.932;2023-07-02T06:48:00;98395.84;;;23.71;52.23
78932;BME280;68331;53.362;55.932;2023-07-02T06:50:26;98404.72;;;23.80;52.01
78932;BME280;68331;53.362;55.932;2023-07-02T06:52:52;98393.78;;;24.06;52.10
78932;BME280;68331;53.362;55.932;2023-07-02T06:55:18;98397.78;;;24.18;51.11
78932;BME280;68331;53.362;55.932;2023-07-02T06:57:46;98406.19;;;24.40;51.15
78932;BME280;68331;53.362;55.932;2023-07-02T07:00:13;98396.19;;;26.57;46.13
78932;BME280;68331;53.362;55.932;2023-07-02T07:02:39;98395.91;;;25.99;46.87
78932;BME280;68331;53.362;55.932;2023-07-02T07:05:05;98407.53;;;24.52;50.00
78932;BME280;68331;53.362;55.932;2023-07-02T07:07:32;98403.50;;;23.50;52.32
78932;BME280;68331;53.362;55.932;2023-07-02T07:09:58;98404.25;;;23.01;54.13
78932;BME280;68331;53.362;55.932;2023-07-02T07:12:24;98399.78;;;23.26;54.22
78932;BME280;68331;53.362;55.932;2023-07-02T07:14:50;98392.44;;;24.02;52.27
78932;BME280;68331;53.362;55.932;2023-07-02T07:17:16;98386.28;;;24.41;51.30
78932;BME280;68331;53.362;55.932;2023-07-02T07:19:42;98386.28;;;24.57;51.54
78932;BME280;68331;53.362;55.932;2023-07-02T07:22:08;98384.31;;;24.26;51.67
78932;BME280;68331;53.362;55.932;2023-07-02T07:24:34;98391.63;;;23.69;52.68
78932;BME280;68331;53.362;55.932;2023-07-02T07:27:00;98383.41;;;23.03;55.02
78932;BME280;68331;53.362;55.932;2023-07-02T07:29:26;98387.03;;;22.51;57.43
78932;BME280;68331;53.362;55.932;2023-07-02T07:31:52;98384.59;;;22.14;59.91
78932;BME280;68331;53.362;55.932;2023-07-02T07:34:18;98378.59;;;21.94;61.51
78932;BME280;68331;53.362;55.932;2023-07-02T07:36:51;98388.69;;;21.92;61.99
78932;BME280;68331;53.362;55.932;2023-07-02T07:39:20;98369.91;;;22.52;60.04
78932;BME280;68331;53.362;55.932;2023-07-02T07:41:49;98372.19;;;23.32;58.73
78932;BME280;68331;53.362;55.932;2023-07-02T07:44:16;98377.59;;;23.57;59.19
78932;BME280;68331;53.362;55.932;2023-07-02T07:46:43;98383.97;;;23.31;58.62
78932;BME280;68331;53.362;55.932;2023-07-02T07:49:10;98378.78;;;22.87;59.13
78932;BME280;68331;53.362;55.932;2023-07-02T07:51:38;98394.06;;;22.44;60.25
78932;BME280;68331;53.362;55.932;2023-07-02T07:54:05;98394.16;;;22.09;61.00
78932;BME280;68331;53.362;55.932;2023-07-02T07:56:31;98391.50;;;21.91;59.88
78932;BME280;68331;53.362;55.932;2023-07-02T07:58:57;98394.28;;;22.07;59.38
78932;BME280;68331;53.362;55.932;2023-07-02T08:01:26;98397.88;;;22.34;57.48
78932;BME280;68331;53.362;55.932;2023-07-02T08:03:52;98400.66;;;22.50;56.57
78932;BME280;68331;53.362;55.932;2023-07-02T08:06:18;98397.53;;;22.63;56.37
78932;BME280;68331;53.362;55.932;2023-07-02T08:08:44;98391.91;;;22.90;56.11
78932;BME280;68331;53.362;55.932;2023-07-02T08:11:10;98397.47;;;23.56;55.14
78932;BME280;68331;53.362;55.932;2023-07-02T08:13:36;98402.84;;;24.21;53.38
78932;BME280;68331;53.362;55.932;2023-07-02T08:16:02;98394.06;;;24.52;52.32
78932;BME280;68331;53.362;55.932;2023-07-02T08:18:28;98400.97;;;24.38;53.43
78932;BME280;68331;53.362;55.932;2023-07-02T08:20:54;98399.50;;;23.86;55.58
78932;BME280;68331;53.362;55.932;2023-07-02T08:23:20;98404.72;;;23.55;57.15
78932;BME280;68331;53.362;55.932;2023-07-02T08:25:45;98391.88;;;23.33;58.02
78932;BME280;68331;53.362;55.932;2023-07-02T08:28:12;98399.09;;;23.24;57.50
78932;BME280;68331;53.362;55.932;2023-07-02T08:30:38;98404.47;;;23.24;58.10
78932;BME280;68331;53.362;55.932;2023-07-02T08:33:04;98406.03;;;22.92;58.67
78932;BME280;68331;53.362;55.932;2023-07-02T08:35:30;98418.78;;;22.48;59.54
78932;BME280;68331;53.362;55.932;2023-07-02T08:37:56;98423.50;;;22.02;61.98
78932;BME280;68331;53.362;55.932;2023-07-02T08:40:22;98426.06;;;21.68;64.46
78932;BME280;68331;53.362;55.932;2023-07-02T08:42:48;98427.44;;;21.36;65.35
78932;BME280;68331;53.362;55.932;2023-07-02T08:45:15;98426.03;;;21.32;65.48
78932;BME280;68331;53.362;55.932;2023-07-02T08:47:45;98427.69;;;21.33;65.78
78932;BME280;68331;53.362;55.932;2023-07-02T08:50:14;98418.91;;;21.41;66.75
78932;BME280;68331;53.362;55.932;2023-07-02T08:52:41;98424.50;;;21.47;66.76
78932;BME280;68331;53.362;55.932;2023-07-02T08:55:08;98415.25;;;21.42;67.03
78932;BME280;68331;53.362;55.932;2023-07-02T08:57:35;98424.06;;;21.24;67.52
78932;BME280;68331;53.362;55.932;2023-07-02T09:00:08;98425.94;;;20.96;67.46
78932;BME280;68331;53.362;55.932;2023-07-02T09:02:34;98428.03;;;20.75;67.99
78932;BME280;68331;53.362;55.932;2023-07-02T09:05:02;98435.66;;;20.70;68.64
78932;BME280;68331;53.362;55.932;2023-07-02T09:07:32;98445.34;;;20.80;69.64
78932;BME280;68331;53.362;55.932;2023-07-02T09:09:58;98439.81;;;20.92;70.08
78932;BME280;68331;53.362;55.932;2023-07-02T09:12:30;98430.69;;;21.02;70.04
78932;BME280;68331;53.362;55.932;2023-07-02T09:15:08;98433.97;;;21.24;69.60
78932;BME280;68331;53.362;55.932;2023-07-02T09:17:35;98415.16;;;21.51;69.31
78932;BME280;68331;53.362;55.932;2023-07-02T09:20:04;98424.50;;;21.83;68.82
78932;BME280;68331;53.362;55.932;2023-07-02T09:22:32;98423.91;;;22.15;68.09
78932;BME280;68331;53.362;55.932;2023-07-02T09:25:00;98424.34;;;22.55;66.96
78932;BME280;68331;53.362;55.932;2023-07-02T09:27:40;98416.69;;;22.68;66.30
78932;BME280;68331;53.362;55.932;2023-07-02T09:30:11;98426.34;;;22.52;66.71
78932;BME280;68331;53.362;55.932;2023-07-02T09:32:39;98429.63;;;22.38;67.30
78932;BME280;68331;53.362;55.932;2023-07-02T09:35:06;98429.09;;;22.35;67.66
78932;BME280;68331;53.362;55.932;2023-07-02T09:37:33;98423.63;;;22.44;67.04
78932;BME280;68331;53.362;55.932;2023-07-02T09:39:59;98417.13;;;22.55;66.50
78932;BME280;68331;53.362;55.932;2023-07-02T09:42:28;98414.31;;;22.65;66.30
78932;BME280;68331;53.362;55.932;2023-07-02T09:44:55;98400.59;;;23.10;64.96
78932;BME280;68331;53.362;55.932;2023-07-02T09:47:23;98397.47;;;23.56;63.62
78932;BME280;68331;53.362;55.932;2023-07-02T09:50:16;98398.19;;;23.90;62.52
78932;BME280;68331;53.362;55.932;2023-07-02T09:52:45;98400.34;;;24.11;61.83
78932;BME280;68331;53.362;55.932;2023-07-02T09:55:12;98393.91;;;24.29;60.70
78932;BME280;68331;53.362;55.932;2023-07-02T09:57:38;98397.13;;;24.16;61.17
78932;BME280;68331;53.362;55.932;2023-07-02T10:00:05;98394.97;;;23.95;62.21
78932;BME280;68331;53.362;55.932;2023-07-02T10:02:34;98395.50;;;23.90;61.87
78932;BME280;68331;53.362;55.932;2023-07-02T10:05:01;98388.41;;;23.98;61.94
78932;BME280;68331;53.362;55.932;2023-07-02T10:07:32;98382.00;;;24.07;61.06
78932;BME280;68331;53.362;55.932;2023-07-02T10:09:59;98394.97;;;24.03;61.29
78932;BME280;68331;53.362;55.932;2023-07-02T10:12:27;98390.44;;;23.87;59.53
78932;BME280;68331;53.362;55.932;2023-07-02T10:14:56;98383.50;;;23.52;59.81
78932;BME280;68331;53.362;55.932;2023-07-02T10:17:31;98351.13;;;22.95;59.66
78932;BME280;68331;53.362;55.932;2023-07-02T10:20:07;98390.16;;;23.07;60.63
78932;BME280;68331;53.362;55.932;2023-07-02T10:22:43;98388.72;;;23.46;59.80
78932;BME280;68331;53.362;55.932;2023-07-02T10:25:10;98389.91;;;23.67;58.92
78932;BME280;68331;53.362;55.932;2023-07-02T10:27:40;98386.84;;;23.54;60.22
78932;BME280;68331;53.362;55.932;2023-07-02T10:30:08;98386.03;;;23.46;60.84
78932;BME280;68331;53.362;55.932;2023-07-02T10:32:35;98379.94;;;23.35;61.07
78932;BME280;68331;53.362;55.932;2023-07-02T10:35:17;98382.69;;;23.76;60.53
78932;BME280;68331;53.362;55.932;2023-07-02T10:37:45;98387.69;;;24.28;58.64
78932;BME280;68331;53.362;55.932;2023-07-02T10:40:12;98374.97;;;24.62;57.13
78932;BME280;68331;53.362;55.932;2023-07-02T10:42:48;98384.84;;;24.77;55.48
78932;BME280;68331;53.362;55.932;2023-07-02T10:45:15;98369.03;;;25.05;53.63
78932;BME280;68331;53.362;55.932;2023-07-02T10:47:41;98368.63;;;25.25;52.12
78932;BME280;68331;53.362;55.932;2023-07-02T10:50:21;98362.72;;;24.90;52.74
78932;BME280;68331;53.362;55.932;2023-07-02T10:52:48;98361.13;;;24.65;53.37
78932;BME280;68331;53.362;55.932;2023-07-02T10:55:20;98361.31;;;24.94;52.61
78932;BME280;68331;53.362;55.932;2023-07-02T10:57:47;98358.72;;;25.09;51.54
78932;BME280;68331;53.362;55.932;2023-07-02T11:00:14;98360.63;;;25.32;50.24
78932;BME280;68331;53.362;55.932;2023-07-02T11:02:40;98355.09;;;25.48;49.38
78932;BME280;68331;53.362;55.932;2023-07-02T11:05:07;98366.97;;;25.08;49.56
78932;BME280;68331;53.362;55.932;2023-07-02T11:07:39;98365.91;;;24.46;50.48
78932;BME280;68331;53.362;55.932;2023-07-02T11:10:06;98372.22;;;24.14;51.10
78932;BME280;68331;53.362;55.932;2023-07-02T11:12:32;98370.72;;;23.95;51.55
78932;BME280;68331;53.362;55.932;2023-07-02T11:15:16;98371.41;;;23.81;52.50
78932;BME280;68331;53.362;55.932;2023-07-02T11:17:45;98375.41;;;23.60;53.09
78932;BME280;68331;53.362;55.932;2023-07-02T11:20:13;98372.88;;;23.51;53.48
78932;BME280;68331;53.362;55.932;2023-07-02T11:22:40;98375.56;;;23.51;53.57
78932;BME280;68331;53.362;55.932;2023-07-02T11:27:39;98384.19;;;23.62;54.73
78932;BME280;68331;53.362;55.932;2023-07-02T11:30:06;98385.22;;;23.70;55.27
78932;BME280;68331;53.362;55.932;2023-07-02T11:32:56;98379.63;;;23.96;55.21
78932;BME280;68331;53.362;55.932;2023-07-02T11:35:22;98383.00;;;24.78;53.33
78932;BME280;68331;53.362;55.932;2023-07-02T11:37:59;98379.41;;;25.25;53.14
78932;BME280;68331;53.362;55.932;2023-07-02T11:40:25;98369.06;;;25.74;51.82
78932;BME280;68331;53.362;55.932;2023-07-02T11:42:51;98362.94;;;26.18;49.81
78932;BME280;68331;53.362;55.932;2023-07-02T11:45:20;98360.44;;;26.17;48.97
78932;BME280;68331;53.362;55.932;2023-07-02T11:47:46;98364.09;;;26.24;48.27
78932;BME280;68331;53.362;55.932;2023-07-02T11:50:13;98359.47;;;25.95;47.84
78932;BME280;68331;53.362;55.932;2023-07-02T11:52:39;98350.66;;;25.55;48.39
78932;BME280;68331;53.362;55.932;2023-07-02T11:55:05;98356.94;;;25.93;48.23
78932;BME280;68331;53.362;55.932;2023-07-02T11:57:31;98363.06;;;26.40;46.75
78932;BME280;68331;53.362;55.932;2023-07-02T11:59:57;98371.44;;;26.15;45.44
78932;BME280;68331;53.362;55.932;2023-07-02T12:02:23;98371.75;;;25.60;45.92
78932;BME280;68331;53.362;55.932;2023-07-02T12:04:49;98374.84;;;25.25;47.27
78932;BME280;68331;53.362;55.932;2023-07-02T12:07:15;98375.16;;;24.91;48.36
78932;BME280;68331;53.362;55.932;2023-07-02T12:09:41;98382.72;;;24.65;49.42
78932;BME280;68331;53.362;55.932;2023-07-02T12:12:07;98378.75;;;24.44;49.67
78932;BME280;68331;53.362;55.932;2023-07-02T12:14:34;98380.97;;;24.16;50.69
78932;BME280;68331;53.362;55.932;2023-07-02T12:17:00;98384.88;;;23.89;50.58
78932;BME280;68331;53.362;55.932;2023-07-02T12:19:26;98374.41;;;23.61;50.37
78932;BME280;68331;53.362;55.932;2023-07-02T12:21:52;98382.66;;;23.43;49.99
78932;BME280;68331;53.362;55.932;2023-07-02T12:24:18;98377.41;;;23.34;50.07
78932;BME280;68331;53.362;55.932;2023-07-02T12:26:44;98389.34;;;23.31;49.36
78932;BME280;68331;53.362;55.932;2023-07-02T12:29:10;98375.75;;;23.33;49.49
78932;BME280;68331;53.362;55.932;2023-07-02T12:31:36;98375.41;;;23.36;49.36
78932;BME280;68331;53.362;55.932;2023-07-02T12:34:02;98380.63;;;23.46;50.19
78932;BME280;68331;53.362;55.932;2023-07-02T12:36:28;98374.91;;;23.57;50.70
78932;BME280;68331;53.362;55.932;2023-07-02T12:38:54;98369.56;;;23.73;51.09
78932;BME280;68331;53.362;55.932;2023-07-02T12:41:20;98373.25;;;23.88;51.46
78932;BME280;68331;53.362;55.932;2023-07-02T12:43:46;98379.16;;;24.00;51.58
78932;BME280;68331;53.362;55.932;2023-07-02T12:46:15;98378.97;;;24.02;51.91
78932;BME280;68331;53.362;55.932;2023-07-02T12:48:41;98384.50;;;24.08;51.59
78932;BME280;68331;53.362;55.932;2023-07-02T12:51:07;98383.50;;;24.09;51.88
78932;BME280;68331;53.362;55.932;2023-07-02T12:53:33;98387.56;;;23.97;52.77